Time;durP1;ratioP1;P1;durP2;ratioP2;P2;SDS_P1;SDS_P2;PMS_P1;PMS_P2;Temp;Humidity;BMP_temperature;BMP_pressure;BME280_temperature;BME280_humidity;BME280_pressure;Samples;Min_cycle;Max_cycle;Signal;HPM_P1;HPM_P2
2021/07/27 00:01:38;;;;;;;15.35;7.18;;;;;;;22.98;100.00;96233.16;5011603;28;20077;-51
2021/07/27 00:04:06;;;;;;;14.90;6.93;;;;;;;22.87;100.00;96239.28;5011216;28;20577;-50
2021/07/27 00:06:35;;;;;;;13.23;6.88;;;;;;;22.67;100.00;96236.84;5009159;28;20073;-51
2021/07/27 00:09:03;;;;;;;11.13;7.57;;;;;;;22.27;100.00;96248.09;5006980;28;20069;-52
2021/07/27 00:11:31;;;;;;;13.25;7.03;;;;;;;22.25;100.00;96242.94;5007321;28;20065;-52
2021/07/27 00:14:01;;;;;;;13.60;7.30;;;;;;;21.82;100.00;96251.00;5010694;28;20082;-52
2021/07/27 00:16:30;;;;;;;11.88;8.07;;;;;;;22.07;100.00;96245.56;5004896;28;20052;-52
2021/07/27 00:18:58;;;;;;;9.38;6.60;;;;;;;22.26;100.00;96249.13;5005747;28;20061;-55
2021/07/27 00:21:27;;;;;;;10.00;6.72;;;;;;;22.21;100.00;96254.34;5009347;28;20077;-50
2021/07/27 00:23:55;;;;;;;12.32;7.10;;;;;;;21.56;100.00;96252.03;5009999;28;20069;-55
2021/07/27 00:26:24;;;;;;;13.77;6.85;;;;;;;21.64;100.00;96258.97;5006534;28;20080;-51
2021/07/27 00:28:53;;;;;;;20.58;6.68;;;;;;;22.12;100.00;96250.28;5008696;28;20091;-52
2021/07/27 00:31:24;;;;;;;16.00;6.93;;;;;;;21.54;100.00;96257.63;5008353;28;20042;-53
2021/07/27 00:33:52;;;;;;;10.88;6.45;;;;;;;22.14;100.00;96258.94;5009376;28;20064;-53
2021/07/27 00:36:20;;;;;;;11.82;6.95;;;;;;;21.90;100.00;96266.81;5007969;28;20071;-52
2021/07/27 00:38:48;;;;;;;8.00;6.80;;;;;;;22.16;100.00;96267.59;5007414;28;20073;-54
2021/07/27 00:41:17;;;;;;;11.55;7.07;;;;;;;22.49;100.00;96261.88;5010947;28;20565;-51
2021/07/27 00:43:45;;;;;;;12.75;7.32;;;;;;;22.57;100.00;96258.06;5008888;28;20081;-54
2021/07/27 00:46:13;;;;;;;11.93;6.75;;;;;;;22.64;100.00;96256.13;5010952;28;20157;-52
2021/07/27 00:48:43;;;;;;;13.95;7.57;;;;;;;22.64;100.00;96259.66;5009302;28;20077;-54
2021/07/27 00:51:12;;;;;;;16.15;7.65;;;;;;;22.75;100.00;96250.00;5007848;28;20053;-52
2021/07/27 00:53:40;;;;;;;14.32;7.32;;;;;;;22.74;100.00;96245.66;5005915;28;20073;-52
2021/07/27 00:56:09;;;;;;;11.20;7.65;;;;;;;22.57;100.00;96253.50;5008776;28;20549;-56
2021/07/27 00:58:38;;;;;;;12.85;8.00;;;;;;;22.85;100.00;96247.59;5007654;28;20077;-54
2021/07/27 01:01:06;;;;;;;9.73;7.88;;;;;;;22.89;100.00;96253.34;5005544;28;20539;-53
2021/07/27 01:03:34;;;;;;;13.27;7.97;;;;;;;22.50;100.00;96256.31;5004911;28;20069;-56
2021/07/27 01:06:04;;;;;;;12.90;7.68;;;;;;;22.45;100.00;96264.19;5008241;28;20069;-54
2021/07/27 01:08:34;;;;;;;10.07;7.00;;;;;;;23.04;100.00;96259.16;5006940;28;20491;-54
2021/07/27 01:11:03;;;;;;;9.95;7.38;;;;;;;23.18;100.00;96259.78;5005960;28;20086;-52
2021/07/27 01:13:31;;;;;;;9.05;7.18;;;;;;;23.14;100.00;96259.41;5012208;28;20111;-54
2021/07/27 01:16:04;;;;;;;13.10;7.18;;;;;;;22.67;100.00;96261.88;5005422;28;20070;-54
2021/07/27 01:18:38;;;;;;;10.75;7.80;;;;;;;22.19;100.00;96267.16;5008749;28;20074;-52
2021/07/27 01:38:11;;;;;;;9.65;7.57;;;;;;;22.97;100.00;96253.03;4985435;28;20461;-56
2021/07/27 01:40:47;;;;;;;11.65;7.57;;;;;;;21.96;100.00;96241.75;5007264;28;20321;-55
2021/07/27 01:43:19;;;;;;;12.43;8.10;;;;;;;22.22;100.00;96250.63;5007158;28;20065;-55
2021/07/27 01:45:48;;;;;;;12.48;8.20;;;;;;;22.32;100.00;96247.41;5005261;28;20038;-57
2021/07/27 01:48:16;;;;;;;13.23;8.55;;;;;;;22.80;100.00;96241.25;5004431;28;20065;-56
2021/07/27 01:50:45;;;;;;;11.48;7.93;;;;;;;22.72;100.00;96239.69;5007251;28;20076;-56
2021/07/27 01:53:25;;;;;;;14.10;7.25;;;;;;;22.49;100.00;96246.59;5005145;28;20077;-55
2021/07/27 01:55:55;;;;;;;17.77;7.93;;;;;;;22.30;100.00;96241.44;5012101;28;20516;-53
2021/07/27 01:58:24;;;;;;;12.38;7.57;;;;;;;22.59;100.00;96247.94;5006084;28;20065;-55
2021/07/27 02:00:52;;;;;;;10.82;7.38;;;;;;;22.83;100.00;96255.06;5004644;28;20061;-55
2021/07/27 02:03:22;;;;;;;11.02;7.05;;;;;;;22.49;100.00;96260.03;4999741;28;20684;-53
2021/07/27 02:05:50;;;;;;;9.85;7.10;;;;;;;22.55;100.00;96252.13;5010585;28;20270;-53
2021/07/27 02:08:18;;;;;;;12.40;7.35;;;;;;;22.69;100.00;96250.91;5011013;28;20188;-54
2021/07/27 02:10:53;;;;;;;13.05;8.00;;;;;;;22.55;100.00;96252.13;5011088;28;20096;-54
2021/07/27 02:13:27;;;;;;;9.95;7.38;;;;;;;22.25;100.00;96247.47;5011070;28;20080;-53
2021/07/27 02:15:57;;;;;;;11.35;7.78;;;;;;;22.38;100.00;96243.84;5009714;28;20504;-56
2021/07/27 02:18:26;;;;;;;12.60;8.00;;;;;;;22.00;100.00;96252.88;5013525;28;20057;-56
2021/07/27 02:20:54;;;;;;;10.35;7.63;;;;;;;22.04;100.00;96248.72;5008460;28;20084;-57
2021/07/27 02:23:22;;;;;;;11.15;8.02;;;;;;;22.29;100.00;96251.34;5011114;28;20080;-56
2021/07/27 02:25:51;;;;;;;15.00;7.78;;;;;;;22.43;100.00;96252.84;5015074;28;20477;-54
2021/07/27 02:28:19;;;;;;;10.63;7.30;;;;;;;22.44;100.00;96246.44;5007714;28;20060;-51
2021/07/27 02:30:53;;;;;;;11.35;7.97;;;;;;;22.04;100.00;96251.38;5008656;28;20519;-56
2021/07/27 02:33:21;;;;;;;11.52;6.88;;;;;;;21.86;100.00;96249.50;5011085;28;20489;-53
2021/07/27 02:35:50;;;;;;;12.60;7.05;;;;;;;21.50;100.00;96247.53;5009837;28;20061;-55
2021/07/27 02:38:18;;;;;;;8.40;6.43;;;;;;;21.80;100.00;96253.06;5009172;28;20082;-55
2021/07/27 02:40:46;;;;;;;6.88;5.38;;;;;;;22.31;100.00;96246.59;5019604;28;20488;-55
2021/07/27 02:43:15;;;;;;;8.05;6.18;;;;;;;22.34;100.00;96253.41;5008812;28;20061;-50
2021/07/27 02:45:43;;;;;;;9.30;6.97;;;;;;;22.13;100.00;96255.44;5005497;28;20061;-55
2021/07/27 02:48:13;;;;;;;10.70;7.05;;;;;;;21.62;100.00;96251.16;5008154;28;20589;-55
2021/07/27 02:50:48;;;;;;;9.02;5.78;;;;;;;20.66;100.00;96248.66;5007493;28;20116;-51
2021/07/27 02:53:17;;;;;;;13.07;5.85;;;;;;;20.49;100.00;96254.44;5010333;28;20080;-58
2021/07/27 02:55:45;;;;;;;22.48;6.90;;;;;;;20.73;100.00;96254.78;5016900;28;20085;-52
2021/07/27 02:58:31;;;;;;;18.15;6.72;;;;;;;20.63;100.00;96247.22;5016826;28;20061;-52
2021/07/27 03:01:00;;;;;;;9.65;7.55;;;;;;;20.28;100.00;96250.19;5008866;28;20065;-57
2021/07/27 03:03:30;;;;;;;11.10;7.22;;;;;;;20.50;100.00;96244.56;5010267;28;20059;-54
2021/07/27 03:06:01;;;;;;;10.50;7.10;;;;;;;20.45;100.00;96245.19;5009688;28;20069;-52
2021/07/27 03:08:51;;;;;;;8.10;6.63;;;;;;;21.58;100.00;96243.78;5014180;28;20061;-55
2021/07/27 03:11:20;;;;;;;12.68;6.55;;;;;;;21.92;100.00;96245.09;5010019;28;20472;-55
2021/07/27 03:13:48;;;;;;;43.63;6.30;;;;;;;21.77;100.00;96250.81;5013900;28;20085;-54
2021/07/27 03:16:19;;;;;;;36.83;5.57;;;;;;;21.95;100.00;96236.59;5011814;28;20065;-54
2021/07/27 03:18:51;;;;;;;50.47;5.95;;;;;;;21.74;100.00;96237.81;5008363;28;20554;-57
2021/07/27 03:21:21;;;;;;;31.92;5.50;;;;;;;22.03;100.00;96229.09;5006235;28;20080;-56
2021/07/27 03:23:50;;;;;;;6.55;4.10;;;;;;;22.03;100.00;96239.84;5014536;28;20088;-54
2021/07/27 03:26:20;;;;;;;11.90;3.40;;;;;;;21.96;100.00;96241.75;5008093;28;20084;-56
2021/07/27 03:28:49;;;;;;;17.50;3.10;;;;;;;22.11;100.00;96243.28;5012085;28;20531;-56
2021/07/27 03:31:17;;;;;;;9.05;3.53;;;;;;;21.26;100.00;96243.75;5015650;28;20069;-54
2021/07/27 03:33:46;;;;;;;11.50;4.40;;;;;;;21.46;100.00;96243.66;5012599;28;20053;-55
2021/07/27 03:36:16;;;;;;;4.10;3.67;;;;;;;21.61;100.00;96230.75;5011728;28;20068;-55
2021/07/27 03:38:44;;;;;;;5.72;4.50;;;;;;;21.43;100.00;96233.34;5012603;28;20512;-55
2021/07/27 03:41:13;;;;;;;4.60;4.18;;;;;;;21.36;100.00;96229.91;5014466;28;20088;-55
2021/07/27 03:43:41;;;;;;;5.10;4.60;;;;;;;20.89;100.00;96240.91;5012955;28;20094;-54
2021/07/27 03:46:10;;;;;;;7.65;5.10;;;;;;;21.15;100.00;96239.91;5010661;28;20037;-53
2021/07/27 03:48:38;;;;;;;10.13;5.85;;;;;;;21.28;100.00;96228.28;5013180;28;20083;-54
2021/07/27 03:51:06;;;;;;;11.88;5.35;;;;;;;20.92;100.00;96237.81;5011260;28;20872;-52
2021/07/27 03:53:36;;;;;;;6.78;5.60;;;;;;;21.43;100.00;96239.53;5010006;28;20058;-55
2021/07/27 03:56:10;;;;;;;7.65;5.65;;;;;;;21.69;100.00;96241.19;5016610;28;20073;-49
2021/07/27 03:58:38;;;;;;;6.95;5.65;;;;;;;21.42;100.00;96243.25;5013670;28;20103;-56
2021/07/27 04:01:07;;;;;;;6.15;5.55;;;;;;;21.71;100.00;96255.22;5010311;28;20038;-58
2021/07/27 04:03:35;;;;;;;5.10;4.60;;;;;;;21.48;100.00;96250.44;5008391;28;20662;-56
2021/07/27 04:06:04;;;;;;;5.53;5.03;;;;;;;21.30;100.00;96247.63;5006115;28;20088;-55
2021/07/27 04:08:32;;;;;;;4.97;4.13;;;;;;;21.58;100.00;96251.81;5006532;28;20074;-52
2021/07/27 04:11:02;;;;;;;4.22;3.83;;;;;;;22.09;100.00;96248.84;5007572;28;20065;-50
2021/07/27 04:13:32;;;;;;;5.38;4.55;;;;;;;21.51;100.00;96255.38;5009099;28;20232;-55
2021/07/27 04:16:01;;;;;;;6.07;4.80;;;;;;;21.88;100.00;96260.81;5008634;28;20077;-54
2021/07/27 04:18:30;;;;;;;7.35;4.90;;;;;;;22.01;100.00;96252.66;5009514;28;20531;-56
2021/07/27 04:20:59;;;;;;;4.47;4.07;;;;;;;22.73;100.00;96258.28;5007891;28;20062;-55
2021/07/27 04:23:27;;;;;;;5.50;4.60;;;;;;;22.43;100.00;96260.91;5006803;28;20565;-54
2021/07/27 04:25:56;;;;;;;5.78;4.85;;;;;;;22.17;100.00;96264.72;5010279;28;20069;-55
2021/07/27 04:28:25;;;;;;;4.55;4.05;;;;;;;22.55;100.00;96262.88;5010544;28;20077;-53
2021/07/27 04:30:54;;;;;;;5.28;4.18;;;;;;;22.88;100.00;96260.59;5007379;28;20068;-52
2021/07/27 04:33:35;;;;;;;5.57;4.55;;;;;;;22.21;100.00;96257.03;5004435;28;20444;-50
2021/07/27 04:36:04;;;;;;;8.60;5.60;;;;;;;22.26;100.00;96249.97;5005247;28;20076;-52
2021/07/27 04:38:33;;;;;;;6.55;5.35;;;;;;;22.52;100.00;96250.69;5006852;28;20436;-52
2021/07/27 04:41:06;;;;;;;6.05;5.38;;;;;;;22.95;100.00;96247.06;5011382;28;20626;-53
2021/07/27 04:43:36;;;;;;;12.38;5.13;;;;;;;22.28;100.00;96252.41;5008732;28;21290;-54
2021/07/27 04:46:05;;;;;;;6.15;5.22;;;;;;;22.98;100.00;96255.50;5008860;28;20065;-51
2021/07/27 04:48:34;;;;;;;10.45;5.50;;;;;;;22.90;100.00;96247.72;5010928;28;20077;-54
2021/07/27 04:51:02;;;;;;;8.48;5.72;;;;;;;22.95;100.00;96249.75;5007777;28;20072;-52
2021/07/27 04:53:34;;;;;;;8.55;5.05;;;;;;;23.14;100.00;96243.28;5008167;28;20070;-55
2021/07/27 04:56:03;;;;;;;8.20;5.78;;;;;;;23.62;100.00;96245.03;5016443;28;20199;-53
2021/07/27 04:58:49;;;;;;;8.15;5.22;;;;;;;22.63;100.00;96252.63;5018097;28;20088;-54
2021/07/27 05:01:17;;;;;;;6.15;5.18;;;;;;;23.06;100.00;96250.88;5004503;28;20072;-54
2021/07/27 05:03:46;;;;;;;7.90;5.30;;;;;;;23.29;100.00;96250.91;5011221;28;20547;-54
2021/07/27 05:06:14;;;;;;;7.88;5.03;;;;;;;23.52;100.00;96254.72;5011402;28;20088;-52
2021/07/27 05:08:43;;;;;;;10.43;5.22;;;;;;;24.06;100.00;96242.84;5013066;28;20065;-53
2021/07/27 05:11:11;;;;;;;9.77;5.93;;;;;;;24.10;100.00;96245.91;5008172;28;20411;-51
2021/07/27 05:13:40;;;;;;;7.60;5.20;;;;;;;24.42;100.00;96248.22;5014390;28;20088;-52
2021/07/27 05:16:14;;;;;;;7.65;4.57;;;;;;;24.86;100.00;96244.81;5007951;28;20069;-48
2021/07/27 05:18:43;;;;;;;6.18;4.63;;;;;;;24.70;100.00;96252.84;5009272;28;20072;-51
2021/07/27 05:21:11;;;;;;;7.57;5.30;;;;;;;24.59;100.00;96249.13;5004886;28;20074;-51
2021/07/27 05:23:39;;;;;;;9.30;5.22;;;;;;;25.40;100.00;96243.69;5012160;28;20076;-52
2021/07/27 05:26:08;;;;;;;9.60;5.43;;;;;;;24.69;100.00;96252.03;5010972;28;20464;-53
2021/07/27 05:28:36;;;;;;;11.50;5.45;;;;;;;24.50;100.00;96250.56;5018894;28;20073;-56
2021/07/27 05:31:06;;;;;;;7.28;5.65;;;;;;;24.33;100.00;96245.06;5011526;28;20553;-56
2021/07/27 05:33:35;;;;;;;7.93;5.75;;;;;;;24.10;100.00;96246.72;5008748;28;20532;-53
2021/07/27 05:36:07;;;;;;;8.05;5.45;;;;;;;24.66;100.00;96238.22;5012867;28;20077;-52
2021/07/27 05:38:35;;;;;;;6.53;5.28;;;;;;;25.27;100.00;96237.53;5011928;28;20531;-49
2021/07/27 05:41:03;;;;;;;8.27;6.07;;;;;;;24.61;100.00;96245.16;5014707;28;20085;-53
2021/07/27 05:43:32;;;;;;;10.38;7.22;;;;;;;24.71;100.00;96238.31;5014974;28;20462;-51
2021/07/27 05:46:03;;;;;;;7.75;6.20;;;;;;;25.04;100.00;96235.72;5015427;28;20072;-52
2021/07/27 05:48:32;;;;;;;9.38;6.25;;;;;;;24.83;100.00;96237.22;5015736;28;20065;-52
2021/07/27 05:51:03;;;;;;;8.63;6.07;;;;;;;25.37;100.00;96228.78;5023110;28;20069;-53
2021/07/27 05:53:31;;;;;;;10.68;6.63;;;;;;;25.47;100.00;96233.53;5009746;28;20078;-54
2021/07/27 05:56:00;;;;;;;10.57;5.78;;;;;;;25.73;100.00;96243.69;5015258;28;20072;-54
2021/07/27 05:58:28;;;;;;;8.10;5.93;;;;;;;25.18;100.00;96240.84;5012526;28;20074;-54
2021/07/27 06:00:57;;;;;;;11.57;6.18;;;;;;;24.80;100.00;96240.38;5011161;28;20073;-52
2021/07/27 06:03:25;;;;;;;9.10;5.60;;;;;;;24.88;100.00;96244.59;5030558;22;20080;-55
2021/07/27 06:05:54;;;;;;;10.73;5.93;;;;;;;24.94;100.00;96256.28;5008723;28;20080;-55
2021/07/27 06:08:24;;;;;;;11.48;6.30;;;;;;;24.33;100.00;96251.28;5015172;28;20076;-53
2021/07/27 06:10:52;;;;;;;9.63;6.13;;;;;;;25.40;100.00;96255.31;5016334;28;20073;-51
2021/07/27 06:13:20;;;;;;;9.43;5.30;;;;;;;24.71;100.00;96255.34;5014943;28;20072;-53
2021/07/27 06:15:49;;;;;;;10.48;5.95;;;;;;;24.66;100.00;96251.69;5016123;28;20065;-55
2021/07/27 06:18:17;;;;;;;9.43;5.57;;;;;;;24.70;100.00;96259.06;5009561;28;20505;-52
2021/07/27 06:20:46;;;;;;;9.77;5.50;;;;;;;25.53;100.00;96254.16;5009028;28;20069;-52
2021/07/27 06:23:14;;;;;;;7.22;5.30;;;;;;;25.56;100.00;96261.75;5015893;28;20464;-57
2021/07/27 06:25:44;;;;;;;6.82;5.15;;;;;;;25.24;100.00;96277.69;5016550;28;20587;-57
2021/07/27 06:28:13;;;;;;;9.80;5.05;;;;;;;25.29;100.00;96272.34;5009397;28;20066;-53
2021/07/27 06:30:41;;;;;;;5.90;4.55;;;;;;;24.57;100.00;96267.41;5009292;28;20448;-58
2021/07/27 06:33:09;;;;;;;5.85;4.80;;;;;;;25.06;100.00;96266.00;5010660;28;20061;-55
2021/07/27 06:35:38;;;;;;;7.97;5.70;;;;;;;24.25;100.00;96267.78;5008355;28;20084;-53
2021/07/27 06:38:06;;;;;;;7.40;5.25;;;;;;;25.54;100.00;96266.59;5002611;28;20077;-54
2021/07/27 06:40:34;;;;;;;6.53;4.65;;;;;;;25.37;100.00;96268.47;5010578;28;20077;-54
2021/07/27 06:43:04;;;;;;;7.95;5.15;;;;;;;24.59;100.00;96265.31;5013348;28;20582;-58
2021/07/27 06:45:33;;;;;;;8.10;5.20;;;;;;;25.03;100.00;96265.66;5007849;28;20135;-58
2021/07/27 06:48:01;;;;;;;6.05;4.70;;;;;;;25.41;100.00;96264.22;5009542;28;20073;-57
2021/07/27 06:50:29;;;;;;;6.22;5.00;;;;;;;25.57;100.00;96266.94;5010358;28;20080;-57
2021/07/27 06:53:01;;;;;;;7.03;5.10;;;;;;;24.92;100.00;96272.72;5014071;28;20081;-55
2021/07/27 06:55:29;;;;;;;8.60;5.03;;;;;;;26.63;100.00;96271.50;5016162;28;21248;-55
2021/07/27 06:57:57;;;;;;;7.60;5.43;;;;;;;25.89;100.00;96279.09;5010618;28;20464;-55
2021/07/27 07:00:27;;;;;;;9.48;5.05;;;;;;;25.13;100.00;96284.78;5010247;28;20076;-53
2021/07/27 07:02:55;;;;;;;6.90;5.32;;;;;;;25.76;100.00;96285.59;5008887;28;20057;-55
2021/07/27 07:05:24;;;;;;;7.57;5.32;;;;;;;25.63;100.00;96283.22;5008316;28;20453;-57
2021/07/27 07:07:52;;;;;;;6.20;5.38;;;;;;;26.06;100.00;96279.91;5014267;28;20084;-56
2021/07/27 07:10:21;;;;;;;7.60;4.90;;;;;;;26.14;100.00;96292.16;5007749;28;20077;-54
2021/07/27 07:12:54;;;;;;;6.22;4.97;;;;;;;25.94;100.00;96298.06;5008280;28;20073;-56
2021/07/27 07:15:23;;;;;;;6.47;5.10;;;;;;;25.84;100.00;96293.31;5008286;28;20077;-54
2021/07/27 07:17:53;;;;;;;8.38;5.28;;;;;;;26.95;100.00;96289.78;4998713;28;20084;-55
2021/07/27 07:20:21;;;;;;;7.10;5.50;;;;;;;26.87;100.00;96299.16;5008034;28;20053;-57
2021/07/27 07:22:49;;;;;;;8.07;5.38;;;;;;;26.37;100.00;96300.09;5012391;28;20091;-57
2021/07/27 07:25:18;;;;;;;5.82;4.90;;;;;;;26.59;100.00;96292.03;5012176;28;20069;-54
2021/07/27 07:27:46;;;;;;;7.13;4.80;;;;;;;27.54;100.00;96302.63;5008772;28;20078;-55
2021/07/27 07:30:15;;;;;;;6.93;5.05;;;;;;;26.34;100.00;96307.88;5012756;28;20065;-57
2021/07/27 07:32:43;;;;;;;6.20;5.28;;;;;;;26.87;100.00;96298.34;5009694;28;20068;-53
2021/07/27 07:35:14;;;;;;;7.05;4.85;;;;;;;27.28;100.00;96306.97;4990182;28;20100;-52
2021/07/27 07:37:42;;;;;;;6.47;5.18;;;;;;;27.83;100.00;96309.41;5014184;28;20739;-55
2021/07/27 07:40:12;;;;;;;6.57;5.18;;;;;;;26.72;100.00;96301.66;5006262;28;20091;-55
2021/07/27 07:42:40;;;;;;;6.28;5.30;;;;;;;27.25;100.00;96288.50;5016562;28;20069;-59
2021/07/27 07:45:09;;;;;;;6.18;5.00;;;;;;;28.42;100.00;96277.88;5007144;28;20061;-58
2021/07/27 07:47:50;;;;;;;10.68;7.15;;;;;;;28.47;96.39;96281.44;5006483;28;20078;-54
2021/07/27 07:50:45;;;;;;;6.25;5.25;;;;;;;28.03;100.00;96286.28;5010999;28;20060;-52
2021/07/27 07:53:13;;;;;;;8.02;4.80;;;;;;;27.54;100.00;96287.19;5010855;28;20081;-57
2021/07/27 07:55:41;;;;;;;6.53;5.57;;;;;;;27.74;100.00;96283.03;5007563;28;20081;-56
2021/07/27 07:58:10;;;;;;;9.15;5.55;;;;;;;28.50;98.84;96275.50;5010388;28;20061;-55
2021/07/27 08:00:39;;;;;;;9.88;5.32;;;;;;;29.05;98.37;96282.28;5007716;28;20061;-58
2021/07/27 08:03:08;;;;;;;9.30;5.88;;;;;;;27.70;100.00;96288.13;5014423;28;20130;-55
2021/07/27 08:05:36;;;;;;;7.03;5.70;;;;;;;28.57;99.52;96284.22;5009011;28;20073;-59
2021/07/27 08:08:06;;;;;;;7.30;5.22;;;;;;;28.52;100.00;96283.34;5007320;28;20085;-58
2021/07/27 08:10:34;;;;;;;;;;;;;;;29.68;87.42;96281.34;5014991;28;20089;-60
2021/07/27 08:13:03;;;;;;;8.60;5.97;;;;;;;28.82;91.87;96269.13;5006100;28;19975;-54
2021/07/27 08:15:31;;;;;;;10.43;5.10;;;;;;;28.98;87.81;96284.41;5008132;28;20073;-57
2021/07/27 08:18:00;;;;;;;8.23;5.60;;;;;;;28.19;89.02;96290.72;5007214;28;20072;-57
2021/07/27 08:20:29;;;;;;;7.43;5.32;;;;;;;29.20;85.30;96283.41;5010058;28;20077;-59
2021/07/27 08:22:59;;;;;;;6.45;5.45;;;;;;;29.60;82.96;96276.47;5009261;28;20602;-57
2021/07/27 08:25:29;;;;;;;10.20;5.85;;;;;;;28.57;88.07;96278.78;5011954;28;20315;-56
2021/07/27 08:27:57;;;;;;;8.00;5.10;;;;;;;28.36;90.48;96283.25;5012592;28;20065;-60
2021/07/27 08:30:27;;;;;;;5.72;5.05;;;;;;;28.48;88.30;96291.22;5009487;28;20520;-57
2021/07/27 08:32:56;;;;;;;7.88;5.40;;;;;;;29.67;68.21;96282.44;5010004;28;20100;-55
2021/07/27 08:35:24;;;;;;;7.10;4.72;;;;;;;30.78;65.31;96285.34;5005279;28;20065;-57
2021/07/27 08:37:53;;;;;;;6.25;4.65;;;;;;;30.53;71.90;96288.94;5012531;28;20089;-56
2021/07/27 08:40:22;;;;;;;6.95;5.32;;;;;;;30.91;70.64;96290.19;5012544;28;20076;-55
2021/07/27 08:42:52;;;;;;;9.02;5.70;;;;;;;29.45;89.46;96293.50;5006767;28;20076;-57
2021/07/27 08:45:21;;;;;;;8.75;5.93;;;;;;;29.60;83.06;96307.16;5005697;28;20145;-58
2021/07/27 08:47:50;;;;;;;6.55;5.43;;;;;;;31.11;73.36;96294.72;5007880;28;20073;-58
2021/07/27 08:50:19;;;;;;;7.30;5.40;;;;;;;29.78;76.36;96294.94;5007728;28;20081;-54
2021/07/27 08:52:47;;;;;;;8.00;5.65;;;;;;;29.63;77.56;96294.91;5008749;28;21828;-56
2021/07/27 08:55:16;;;;;;;8.00;5.40;;;;;;;29.09;90.05;96294.22;5008519;28;20498;-54
2021/07/27 08:57:48;;;;;;;6.72;5.15;;;;;;;30.43;71.04;96290.56;5007609;28;20065;-58
2021/07/27 09:00:18;;;;;;;6.78;4.88;;;;;;;30.72;74.52;96288.03;5006131;28;20516;-55
2021/07/27 09:02:46;;;;;;;;;;;;;;;30.80;60.18;96286.69;5008162;28;20599;-55
2021/07/27 09:05:15;;;;;;;6.50;4.82;;;;;;;30.36;67.81;96289.25;5008230;28;20418;-59
2021/07/27 09:07:43;;;;;;;9.35;5.65;;;;;;;31.15;65.71;96293.09;5009559;28;20084;-57
2021/07/27 09:10:13;;;;;;;6.80;4.97;;;;;;;30.45;67.60;96295.72;5004732;28;20104;-60
2021/07/27 09:12:52;;;;;;;7.88;5.38;;;;;;;30.63;63.75;96292.44;5002924;28;22460;-60
2021/07/27 09:15:23;;;;;;;6.20;4.95;;;;;;;29.29;66.65;96298.91;5007077;28;20057;-56
2021/07/27 09:17:55;;;;;;;6.40;4.82;;;;;;;29.47;67.18;96289.44;5010284;28;20076;-58
2021/07/27 09:20:32;;;;;;;7.47;4.75;;;;;;;30.06;63.03;96282.72;5011206;28;20085;-58
2021/07/27 09:23:01;;;;;;;6.03;4.57;;;;;;;29.92;63.43;96279.72;5013695;28;20096;-55
2021/07/27 09:25:30;;;;;;;6.22;4.75;;;;;;;30.73;53.78;96275.25;5008788;28;20405;-56
2021/07/27 09:28:03;;;;;;;7.00;4.97;;;;;;;31.28;51.96;96270.69;5005309;28;20503;-56
2021/07/27 09:30:36;;;;;;;6.63;4.88;;;;;;;30.48;60.13;96268.78;5003460;28;20062;-60
2021/07/27 09:33:06;;;;;;;6.68;5.22;;;;;;;31.43;57.75;96265.16;5006901;28;20069;-56
2021/07/27 09:35:35;;;;;;;7.67;5.70;;;;;;;31.46;56.30;96262.97;5007671;28;20080;-58
2021/07/27 09:38:08;;;;;;;7.00;5.20;;;;;;;31.71;59.11;96260.03;5007095;28;20077;-59
2021/07/27 09:40:37;;;;;;;6.70;4.97;;;;;;;32.01;54.26;96264.47;5015740;28;20101;-59
2021/07/27 09:43:06;;;;;;;6.50;5.13;;;;;;;32.28;55.02;96268.56;5008968;28;20069;-60
2021/07/27 09:45:35;;;;;;;6.63;5.18;;;;;;;31.88;55.70;96273.31;5009743;28;20077;-59
2021/07/27 09:48:07;;;;;;;6.93;4.72;;;;;;;30.88;60.41;96268.97;5003547;28;20065;-57
2021/07/27 09:50:35;;;;;;;6.20;4.93;;;;;;;31.08;61.35;96262.63;5011002;28;20453;-57
2021/07/27 09:53:03;;;;;;;9.52;5.10;;;;;;;31.26;60.96;96264.69;5004320;28;20077;-57
2021/07/27 09:55:32;;;;;;;7.15;5.40;;;;;;;31.26;64.08;96261.16;5009326;28;20109;-60
2021/07/27 09:58:01;;;;;;;7.05;5.20;;;;;;;30.55;56.58;96270.41;5007176;28;20073;-57
2021/07/27 10:00:29;;;;;;;6.57;4.90;;;;;;;30.25;55.97;96258.53;5009704;28;20077;-57
2021/07/27 10:02:59;;;;;;;6.25;5.03;;;;;;;31.62;56.38;96250.84;5004673;28;20520;-53
2021/07/27 10:05:28;;;;;;;7.03;4.90;;;;;;;31.70;52.43;96254.91;5008905;28;20062;-56
2021/07/27 10:07:57;;;;;;;7.80;5.07;;;;;;;31.85;59.08;96261.03;5009065;28;20082;-58
2021/07/27 10:10:37;;;;;;;7.23;4.87;;;;;;;32.04;48.93;96260.38;5006758;28;20457;-57
2021/07/27 10:13:09;;;;;;;6.05;4.70;;;;;;;31.29;52.57;96253.22;5004328;28;20077;-56
2021/07/27 10:15:42;;;;;;;8.02;5.07;;;;;;;30.67;53.43;96257.31;5001905;28;20066;-58
2021/07/27 10:18:12;;;;;;;6.28;4.80;;;;;;;31.78;46.86;96255.09;5007384;28;20465;-58
2021/07/27 10:20:41;;;;;;;5.38;4.40;;;;;;;32.69;47.09;96263.53;5007368;28;20477;-55
2021/07/27 10:23:20;;;;;;;4.50;4.10;;;;;;;32.15;44.90;96267.34;5006696;28;20081;-60
2021/07/27 10:25:59;;;;;;;6.65;4.32;;;;;;;31.51;46.28;96271.91;5007112;28;20072;-58
2021/07/27 10:28:28;;;;;;;7.35;4.68;;;;;;;32.04;49.92;96272.09;5014154;28;20509;-54
2021/07/27 10:31:07;;;;;;;4.68;4.15;;;;;;;32.30;49.73;96269.09;4995002;28;20073;-57
2021/07/27 10:33:37;;;;;;;5.65;4.82;;;;;;;32.63;47.53;96272.09;5009367;28;20445;-57
2021/07/27 10:36:06;;;;;;;5.07;4.55;;;;;;;33.89;43.66;96266.00;5002862;28;20073;-57
2021/07/27 10:38:37;;;;;;;5.90;4.45;;;;;;;32.22;50.30;96265.09;5010320;28;20074;-58
2021/07/27 10:41:15;;;;;;;5.25;4.72;;;;;;;32.80;48.84;96243.19;5009559;28;20081;-56
2021/07/27 10:43:44;;;;;;;6.38;4.50;;;;;;;32.85;47.52;96251.31;5008118;28;20096;-58
2021/07/27 10:46:12;;;;;;;5.38;4.65;;;;;;;31.79;51.69;96250.44;5009501;28;20531;-58
2021/07/27 10:48:43;;;;;;;7.18;4.78;;;;;;;32.58;49.45;96262.81;5008935;28;20072;-56
2021/07/27 10:51:12;;;;;;;6.55;4.75;;;;;;;31.95;50.03;96253.88;5009066;28;20050;-57
2021/07/27 10:53:41;;;;;;;5.85;4.65;;;;;;;33.35;44.28;96250.16;5014557;28;20528;-54
2021/07/27 10:56:10;;;;;;;;;;;;;;;33.34;42.40;96241.13;5014227;28;20088;-57
2021/07/27 10:58:38;;;;;;;7.35;4.43;;;;;;;34.70;41.68;96241.88;5012234;28;19963;-60
2021/07/27 11:01:08;;;;;;;5.90;4.47;;;;;;;32.97;44.54;96239.19;5008384;28;20077;-59
2021/07/27 11:03:37;;;;;;;5.03;4.40;;;;;;;32.15;46.49;96238.16;5009503;28;20069;-58
2021/07/27 11:06:07;;;;;;;5.23;4.40;;;;;;;33.93;43.41;96236.13;5009080;28;20118;-59
2021/07/27 11:08:35;;;;;;;4.90;4.40;;;;;;;34.18;40.03;96224.75;5008846;28;20073;-58
2021/07/27 11:11:08;;;;;;;6.82;4.30;;;;;;;33.79;43.23;96230.59;5007806;28;20045;-59
2021/07/27 11:13:38;;;;;;;6.70;4.30;;;;;;;33.99;43.01;96229.44;5012017;28;20088;-54
2021/07/27 11:16:07;;;;;;;5.30;4.40;;;;;;;35.04;41.36;96223.41;5008982;28;20038;-55
2021/07/27 11:18:35;;;;;;;4.88;4.18;;;;;;;33.58;41.48;96221.09;5007750;28;20105;-58
2021/07/27 11:21:09;;;;;;;5.28;4.30;;;;;;;34.05;43.47;96225.53;5015672;28;20066;-57
2021/07/27 11:23:37;;;;;;;5.30;3.90;;;;;;;34.90;38.99;96215.97;5008450;28;20066;-57
2021/07/27 11:26:06;;;;;;;4.68;4.20;;;;;;;35.02;40.57;96203.69;5009038;28;20085;-54
2021/07/27 11:28:35;;;;;;;6.78;4.53;;;;;;;33.99;42.15;96208.38;5016382;28;20088;-52
2021/07/27 11:31:04;;;;;;;4.95;4.28;;;;;;;32.76;44.03;96198.47;5010458;28;20070;-60
2021/07/27 11:33:32;;;;;;;5.13;4.05;;;;;;;32.60;43.48;96203.28;5011745;28;20073;-55
2021/07/27 11:36:00;;;;;;;5.70;4.53;;;;;;;33.64;40.11;96193.38;5009007;28;20076;-56
2021/07/27 11:38:32;;;;;;;6.97;4.47;;;;;;;33.81;43.29;96192.81;5004292;28;20068;-58
2021/07/27 11:41:06;;;;;;;5.65;4.18;;;;;;;33.82;42.54;96193.63;5015459;28;20759;-58
2021/07/27 11:43:35;;;;;;;4.88;4.03;;;;;;;34.56;39.49;96171.78;5006922;28;20482;-58
2021/07/27 11:46:06;;;;;;;7.85;4.70;;;;;;;33.96;42.30;96184.34;5007864;28;20728;-56
2021/07/27 11:48:35;;;;;;;5.53;4.40;;;;;;;33.76;41.43;96195.66;5010163;28;20547;-54
2021/07/27 11:51:04;;;;;;;5.57;3.72;;;;;;;35.29;39.12;96184.44;5008128;28;20069;-56
2021/07/27 11:53:37;;;;;;;5.78;4.68;;;;;;;32.60;44.21;96181.44;5005364;28;20521;-56
2021/07/27 11:56:12;;;;;;;5.82;4.60;;;;;;;34.04;41.24;96176.59;5006740;28;20104;-58